sensor_id;sensor_type;location;lat;lon;timestamp;temperature;humidity
3268;DHT22;1646;52.450;13.326;2024-03-17T00:02:22;6.20;99.90
3268;DHT22;1646;52.450;13.326;2024-03-17T00:07:20;6.10;99.90
3268;DHT22;1646;52.450;13.326;2024-03-17T00:12:17;6.10;99.90
3268;DHT22;1646;52.450;13.326;2024-03-17T00:17:14;6.10;99.90
3268;DHT22;1646;52.450;13.326;2024-03-17T00:22:13;6.10;99.90
3268;DHT22;1646;52.450;13.326;2024-03-17T00:27:11;6.10;99.90
3268;DHT22;1646;52.450;13.326;2024-03-17T00:32:09;6.10;99.90
3268;DHT22;1646;52.450;13.326;2024-03-17T00:37:07;6.00;99.90
3268;DHT22;1646;52.450;13.326;2024-03-17T00:42:06;6.10;99.90
3268;DHT22;1646;52.450;13.326;2024-03-17T00:47:03;6.00;99.90
3268;DHT22;1646;52.450;13.326;2024-03-17T00:52:01;6.00;99.90
3268;DHT22;1646;52.450;13.326;2024-03-17T00:56:58;6.00;99.90
3268;DHT22;1646;52.450;13.326;2024-03-17T01:01:57;6.00;99.90
3268;DHT22;1646;52.450;13.326;2024-03-17T01:06:54;5.90;99.90
3268;DHT22;1646;52.450;13.326;2024-03-17T01:11:52;5.90;99.90
3268;DHT22;1646;52.450;13.326;2024-03-17T01:16:50;5.90;99.90
3268;DHT22;1646;52.450;13.326;2024-03-17T01:21:49;5.90;99.90
3268;DHT22;1646;52.450;13.326;2024-03-17T01:26:47;5.90;99.90
3268;DHT22;1646;52.450;13.326;2024-03-17T01:31:45;5.80;99.90
3268;DHT22;1646;52.450;13.326;2024-03-17T01:36:43;5.80;99.90
3268;DHT22;1646;52.450;13.326;2024-03-17T01:41:42;5.70;99.90
3268;DHT22;1646;52.450;13.326;2024-03-17T01:46:39;5.50;99.90
3268;DHT22;1646;52.450;13.326;2024-03-17T01:51:36;5.50;99.90
3268;DHT22;1646;52.450;13.326;2024-03-17T01:56:34;5.50;99.90
3268;DHT22;1646;52.450;13.326;2024-03-17T02:01:33;5.40;99.90
3268;DHT22;1646;52.450;13.326;2024-03-17T02:06:30;5.40;99.90
3268;DHT22;1646;52.450;13.326;2024-03-17T02:11:29;5.40;99.90
3268;DHT22;1646;52.450;13.326;2024-03-17T02:16:27;5.20;99.90
3268;DHT22;1646;52.450;13.326;2024-03-17T02:21:28;5.20;99.90
3268;DHT22;1646;52.450;13.326;2024-03-17T02:26:27;5.20;99.90
3268;DHT22;1646;52.450;13.326;2024-03-17T02:31:25;5.20;99.90
3268;DHT22;1646;52.450;13.326;2024-03-17T02:36:22;5.20;99.90
3268;DHT22;1646;52.450;13.326;2024-03-17T02:41:19;5.20;99.90
3268;DHT22;1646;52.450;13.326;2024-03-17T02:46:19;5.10;99.90
3268;DHT22;1646;52.450;13.326;2024-03-17T02:51:18;5.10;99.90
3268;DHT22;1646;52.450;13.326;2024-03-17T02:56:17;5.10;99.90
3268;DHT22;1646;52.450;13.326;2024-03-17T03:01:14;5.00;99.90
3268;DHT22;1646;52.450;13.326;2024-03-17T03:06:14;5.00;99.90
3268;DHT22;1646;52.450;13.326;2024-03-17T03:11:16;4.90;99.90
3268;DHT22;1646;52.450;13.326;2024-03-17T03:16:14;4.80;99.90
3268;DHT22;1646;52.450;13.326;2024-03-17T03:21:13;4.80;99.90
3268;DHT22;1646;52.450;13.326;2024-03-17T03:26:11;4.80;99.90
3268;DHT22;1646;52.450;13.326;2024-03-17T03:31:11;4.80;99.90
3268;DHT22;1646;52.450;13.326;2024-03-17T03:36:13;4.70;99.90
3268;DHT22;1646;52.450;13.326;2024-03-17T03:41:13;4.60;99.90
3268;DHT22;1646;52.450;13.326;2024-03-17T03:46:10;4.60;99.90
3268;DHT22;1646;52.450;13.326;2024-03-17T03:51:08;4.60;99.90
3268;DHT22;1646;52.450;13.326;2024-03-17T03:56:07;4.60;99.90
3268;DHT22;1646;52.450;13.326;2024-03-17T04:01:07;4.60;99.90
3268;DHT22;1646;52.450;13.326;2024-03-17T04:06:05;4.50;99.90
3268;DHT22;1646;52.450;13.326;2024-03-17T04:11:03;4.40;99.90
3268;DHT22;1646;52.450;13.326;2024-03-17T04:16:04;4.30;99.90
3268;DHT22;1646;52.450;13.326;2024-03-17T04:21:03;4.20;99.90
3268;DHT22;1646;52.450;13.326;2024-03-17T04:26:01;4.20;99.90
3268;DHT22;1646;52.450;13.326;2024-03-17T04:31:04;4.20;99.90
3268;DHT22;1646;52.450;13.326;2024-03-17T04:36:02;4.20;99.90
3268;DHT22;1646;52.450;13.326;2024-03-17T04:41:00;4.30;99.90
3268;DHT22;1646;52.450;13.326;2024-03-17T04:46:04;4.20;99.90
3268;DHT22;1646;52.450;13.326;2024-03-17T04:51:04;4.20;99.90
3268;DHT22;1646;52.450;13.326;2024-03-17T04:56:02;4.30;99.90
3268;DHT22;1646;52.450;13.326;2024-03-17T05:01:05;4.40;99.90
3268;DHT22;1646;52.450;13.326;2024-03-17T05:06:04;4.40;99.90
3268;DHT22;1646;52.450;13.326;2024-03-17T05:11:03;4.40;99.90
3268;DHT22;1646;52.450;13.326;2024-03-17T05:16:02;4.40;99.90
3268;DHT22;1646;52.450;13.326;2024-03-17T05:21:03;4.40;99.90
3268;DHT22;1646;52.450;13.326;2024-03-17T05:26:01;4.30;99.90
3268;DHT22;1646;52.450;13.326;2024-03-17T05:31:00;4.30;99.90
3268;DHT22;1646;52.450;13.326;2024-03-17T05:35:59;4.30;99.90
3268;DHT22;1646;52.450;13.326;2024-03-17T05:41:00;4.30;99.90
3268;DHT22;1646;52.450;13.326;2024-03-17T05:45:59;4.30;99.90
3268;DHT22;1646;52.450;13.326;2024-03-17T05:50:56;4.30;99.90
3268;DHT22;1646;52.450;13.326;2024-03-17T05:55:54;4.40;99.90
3268;DHT22;1646;52.450;13.326;2024-03-17T06:00:53;4.20;99.90
3268;DHT22;1646;52.450;13.326;2024-03-17T06:05:50;4.20;99.90
3268;DHT22;1646;52.450;13.326;2024-03-17T06:10:49;4.10;99.90
3268;DHT22;1646;52.450;13.326;2024-03-17T06:15:47;4.10;99.90
3268;DHT22;1646;52.450;13.326;2024-03-17T06:20:47;4.20;99.90
3268;DHT22;1646;52.450;13.326;2024-03-17T06:25:45;4.30;99.90
3268;DHT22;1646;52.450;13.326;2024-03-17T06:30:44;4.40;99.90
3268;DHT22;1646;52.450;13.326;2024-03-17T06:35:42;4.60;99.90
3268;DHT22;1646;52.450;13.326;2024-03-17T06:40:41;4.70;99.90
3268;DHT22;1646;52.450;13.326;2024-03-17T06:45:39;4.90;99.90
3268;DHT22;1646;52.450;13.326;2024-03-17T06:50:38;5.20;99.90
3268;DHT22;1646;52.450;13.326;2024-03-17T06:55:36;5.30;99.90
3268;DHT22;1646;52.450;13.326;2024-03-17T07:00:35;5.50;99.90
3268;DHT22;1646;52.450;13.326;2024-03-17T07:05:32;5.50;99.90
3268;DHT22;1646;52.450;13.326;2024-03-17T07:10:30;5.70;99.90
3268;DHT22;1646;52.450;13.326;2024-03-17T07:15:27;5.80;99.90
3268;DHT22;1646;52.450;13.326;2024-03-17T07:20:26;6.00;99.90
3268;DHT22;1646;52.450;13.326;2024-03-17T07:25:23;6.10;99.90
3268;DHT22;1646;52.450;13.326;2024-03-17T07:30:20;6.20;99.90
3268;DHT22;1646;52.450;13.326;2024-03-17T07:35:18;6.30;99.90
3268;DHT22;1646;52.450;13.326;2024-03-17T07:40:18;6.20;99.90
3268;DHT22;1646;52.450;13.326;2024-03-17T07:45:16;6.40;99.90
3268;DHT22;1646;52.450;13.326;2024-03-17T07:50:14;6.70;99.90
3268;DHT22;1646;52.450;13.326;2024-03-17T07:55:12;6.90;99.90
3268;DHT22;1646;52.450;13.326;2024-03-17T08:00:11;7.10;99.90
3268;DHT22;1646;52.450;13.326;2024-03-17T08:05:12;7.30;99.90
3268;DHT22;1646;52.450;13.326;2024-03-17T08:10:10;7.70;99.90
3268;DHT22;1646;52.450;13.326;2024-03-17T08:15:09;7.90;99.90
3268;DHT22;1646;52.450;13.326;2024-03-17T08:20:07;8.10;99.90
3268;DHT22;1646;52.450;13.326;2024-03-17T08:25:05;8.50;99.90
3268;DHT22;1646;52.450;13.326;2024-03-17T08:30:04;9.20;99.90
3268;DHT22;1646;52.450;13.326;2024-03-17T08:35:03;9.60;99.90
3268;DHT22;1646;52.450;13.326;2024-03-17T08:40:00;10.10;99.90
3268;DHT22;1646;52.450;13.326;2024-03-17T08:44:58;10.30;99.90
3268;DHT22;1646;52.450;13.326;2024-03-17T08:49:55;11.20;99.90
3268;DHT22;1646;52.450;13.326;2024-03-17T08:54:55;11.10;99.90
3268;DHT22;1646;52.450;13.326;2024-03-17T08:59:52;10.80;99.90
3268;DHT22;1646;52.450;13.326;2024-03-17T09:04:50;11.20;99.90
3268;DHT22;1646;52.450;13.326;2024-03-17T09:09:48;10.70;99.90
3268;DHT22;1646;52.450;13.326;2024-03-17T09:14:48;10.90;99.90
3268;DHT22;1646;52.450;13.326;2024-03-17T09:19:45;11.30;99.90
3268;DHT22;1646;52.450;13.326;2024-03-17T09:24:43;11.20;99.90
3268;DHT22;1646;52.450;13.326;2024-03-17T09:29:40;12.80;99.90
3268;DHT22;1646;52.450;13.326;2024-03-17T09:34:39;14.40;99.90
3268;DHT22;1646;52.450;13.326;2024-03-17T09:39:37;14.30;99.90
3268;DHT22;1646;52.450;13.326;2024-03-17T09:44:36;13.20;99.90
3268;DHT22;1646;52.450;13.326;2024-03-17T09:49:34;14.10;99.90
3268;DHT22;1646;52.450;13.326;2024-03-17T09:54:33;16.20;98.90
3268;DHT22;1646;52.450;13.326;2024-03-17T09:59:52;14.60;95.50
3268;DHT22;1646;52.450;13.326;2024-03-17T10:04:51;12.90;98.30
3268;DHT22;1646;52.450;13.326;2024-03-17T10:09:49;14.30;98.60
3268;DHT22;1646;52.450;13.326;2024-03-17T10:14:57;14.20;98.10
3268;DHT22;1646;52.450;13.326;2024-03-17T10:20:11;14.30;99.00
3268;DHT22;1646;52.450;13.326;2024-03-17T10:25:10;14.80;97.60
3268;DHT22;1646;52.450;13.326;2024-03-17T10:30:18;14.60;97.40
3268;DHT22;1646;52.450;13.326;2024-03-17T10:35:27;16.10;98.50
3268;DHT22;1646;52.450;13.326;2024-03-17T10:40:27;17.10;95.90
3268;DHT22;1646;52.450;13.326;2024-03-17T10:45:26;19.60;92.20
3268;DHT22;1646;52.450;13.326;2024-03-17T10:50:29;20.70;82.20
3268;DHT22;1646;52.450;13.326;2024-03-17T10:55:31;18.40;81.30
3268;DHT22;1646;52.450;13.326;2024-03-17T11:00:29;15.40;81.70
3268;DHT22;1646;52.450;13.326;2024-03-17T11:05:29;13.30;85.30
3268;DHT22;1646;52.450;13.326;2024-03-17T11:10:33;13.50;88.90
3268;DHT22;1646;52.450;13.326;2024-03-17T11:15:48;15.70;87.40
3268;DHT22;1646;52.450;13.326;2024-03-17T11:20:56;18.70;78.60
3268;DHT22;1646;52.450;13.326;2024-03-17T11:25:56;19.30;76.30
3268;DHT22;1646;52.450;13.326;2024-03-17T11:30:53;18.00;76.00
3268;DHT22;1646;52.450;13.326;2024-03-17T11:36:30;16.60;72.90
3268;DHT22;1646;52.450;13.326;2024-03-17T11:41:36;15.00;76.10
3268;DHT22;1646;52.450;13.326;2024-03-17T11:46:34;13.50;78.70
3268;DHT22;1646;52.450;13.326;2024-03-17T11:51:34;12.90;82.10
3268;DHT22;1646;52.450;13.326;2024-03-17T11:56:33;13.30;77.80
3268;DHT22;1646;52.450;13.326;2024-03-17T12:01:30;12.50;79.70
3268;DHT22;1646;52.450;13.326;2024-03-17T12:06:28;12.70;85.20
3268;DHT22;1646;52.450;13.326;2024-03-17T12:11:25;13.40;82.10
3268;DHT22;1646;52.450;13.326;2024-03-17T12:16:24;13.40;81.30
3268;DHT22;1646;52.450;13.326;2024-03-17T12:21:22;13.30;80.70
3268;DHT22;1646;52.450;13.326;2024-03-17T12:26:21;13.10;79.90
3268;DHT22;1646;52.450;13.326;2024-03-17T12:31:19;12.60;80.60
3268;DHT22;1646;52.450;13.326;2024-03-17T12:36:18;12.50;82.40
3268;DHT22;1646;52.450;13.326;2024-03-17T12:41:16;12.80;79.60
3268;DHT22;1646;52.450;13.326;2024-03-17T12:46:14;13.20;81.10
3268;DHT22;1646;52.450;13.326;2024-03-17T12:51:14;13.60;82.70
3268;DHT22;1646;52.450;13.326;2024-03-17T12:56:22;13.70;80.90
3268;DHT22;1646;52.450;13.326;2024-03-17T13:01:37;14.10;80.20
3268;DHT22;1646;52.450;13.326;2024-03-17T13:06:35;13.30;76.30
3268;DHT22;1646;52.450;13.326;2024-03-17T13:11:34;12.20;77.30
3268;DHT22;1646;52.450;13.326;2024-03-17T13:16:31;12.00;79.60
3268;DHT22;1646;52.450;13.326;2024-03-17T13:21:28;12.50;83.10
3268;DHT22;1646;52.450;13.326;2024-03-17T13:26:26;12.60;77.50
3268;DHT22;1646;52.450;13.326;2024-03-17T13:31:24;12.50;82.10
3268;DHT22;1646;52.450;13.326;2024-03-17T13:36:22;12.50;78.30
3268;DHT22;1646;52.450;13.326;2024-03-17T13:41:20;12.20;81.90
3268;DHT22;1646;52.450;13.326;2024-03-17T13:46:17;12.40;80.50
3268;DHT22;1646;52.450;13.326;2024-03-17T13:51:16;12.20;77.80
3268;DHT22;1646;52.450;13.326;2024-03-17T13:56:13;11.70;77.90
3268;DHT22;1646;52.450;13.326;2024-03-17T14:01:11;11.30;78.20
3268;DHT22;1646;52.450;13.326;2024-03-17T14:06:08;11.20;77.80
3268;DHT22;1646;52.450;13.326;2024-03-17T14:11:07;11.10;78.00
3268;DHT22;1646;52.450;13.326;2024-03-17T14:16:04;11.10;78.50
3268;DHT22;1646;52.450;13.326;2024-03-17T14:21:02;11.10;80.20
3268;DHT22;1646;52.450;13.326;2024-03-17T14:26:01;11.30;79.40
3268;DHT22;1646;52.450;13.326;2024-03-17T14:31:01;11.40;79.50
3268;DHT22;1646;52.450;13.326;2024-03-17T14:35:59;11.80;80.50
3268;DHT22;1646;52.450;13.326;2024-03-17T14:40:57;12.00;79.10
3268;DHT22;1646;52.450;13.326;2024-03-17T14:45:54;12.30;82.30
3268;DHT22;1646;52.450;13.326;2024-03-17T14:50:53;12.60;80.10
3268;DHT22;1646;52.450;13.326;2024-03-17T14:55:50;12.10;77.60
3268;DHT22;1646;52.450;13.326;2024-03-17T15:00:49;11.90;81.10
3268;DHT22;1646;52.450;13.326;2024-03-17T15:05:46;11.90;79.20
3268;DHT22;1646;52.450;13.326;2024-03-17T15:10:45;12.20;81.40
3268;DHT22;1646;52.450;13.326;2024-03-17T15:15:42;12.80;78.00
3268;DHT22;1646;52.450;13.326;2024-03-17T15:20:43;13.20;78.90
3268;DHT22;1646;52.450;13.326;2024-03-17T15:25:40;13.80;79.20
3268;DHT22;1646;52.450;13.326;2024-03-17T15:30:39;14.70;77.30
3268;DHT22;1646;52.450;13.326;2024-03-17T15:35:36;15.40;75.40
3268;DHT22;1646;52.450;13.326;2024-03-17T15:40:38;15.80;72.80
3268;DHT22;1646;52.450;13.326;2024-03-17T15:45:35;16.30;73.90
3268;DHT22;1646;52.450;13.326;2024-03-17T15:50:35;16.60;72.40
3268;DHT22;1646;52.450;13.326;2024-03-17T15:55:35;17.40;73.00
3268;DHT22;1646;52.450;13.326;2024-03-17T16:00:33;18.80;70.60
3268;DHT22;1646;52.450;13.326;2024-03-17T16:05:31;20.70;69.20
3268;DHT22;1646;52.450;13.326;2024-03-17T16:10:30;22.50;67.00
3268;DHT22;1646;52.450;13.326;2024-03-17T16:15:27;23.70;64.20
3268;DHT22;1646;52.450;13.326;2024-03-17T16:20:56;23.80;57.80
3268;DHT22;1646;52.450;13.326;2024-03-17T16:25:56;23.20;59.30
3268;DHT22;1646;52.450;13.326;2024-03-17T16:30:56;22.30;56.20
3268;DHT22;1646;52.450;13.326;2024-03-17T16:35:54;20.60;55.20
3268;DHT22;1646;52.450;13.326;2024-03-17T16:40:54;18.50;55.20
3268;DHT22;1646;52.450;13.326;2024-03-17T16:46:03;16.90;56.40
3268;DHT22;1646;52.450;13.326;2024-03-17T16:51:01;15.30;56.90
3268;DHT22;1646;52.450;13.326;2024-03-17T16:56:00;14.00;58.50
3268;DHT22;1646;52.450;13.326;2024-03-17T17:00:57;12.70;59.00
3268;DHT22;1646;52.450;13.326;2024-03-17T17:05:55;11.90;61.10
3268;DHT22;1646;52.450;13.326;2024-03-17T17:10:52;11.40;62.70
3268;DHT22;1646;52.450;13.326;2024-03-17T17:15:51;11.10;64.20
3268;DHT22;1646;52.450;13.326;2024-03-17T17:20:48;10.90;64.80
3268;DHT22;1646;52.450;13.326;2024-03-17T17:25:45;10.60;66.00
3268;DHT22;1646;52.450;13.326;2024-03-17T17:30:43;10.30;67.30
3268;DHT22;1646;52.450;13.326;2024-03-17T17:35:42;10.20;66.40
3268;DHT22;1646;52.450;13.326;2024-03-17T17:40:39;10.00;67.70
3268;DHT22;1646;52.450;13.326;2024-03-17T17:45:36;10.00;67.90
3268;DHT22;1646;52.450;13.326;2024-03-17T17:50:34;9.90;70.30
3268;DHT22;1646;52.450;13.326;2024-03-17T17:55:33;9.90;71.40
3268;DHT22;1646;52.450;13.326;2024-03-17T18:00:31;9.90;71.50
3268;DHT22;1646;52.450;13.326;2024-03-17T18:05:29;9.80;71.40
3268;DHT22;1646;52.450;13.326;2024-03-17T18:10:26;9.60;71.90
3268;DHT22;1646;52.450;13.326;2024-03-17T18:15:25;9.60;72.90
3268;DHT22;1646;52.450;13.326;2024-03-17T18:20:23;9.50;73.10
3268;DHT22;1646;52.450;13.326;2024-03-17T18:25:21;9.40;72.60
3268;DHT22;1646;52.450;13.326;2024-03-17T18:30:18;9.30;72.90
3268;DHT22;1646;52.450;13.326;2024-03-17T18:35:17;9.20;73.80
3268;DHT22;1646;52.450;13.326;2024-03-17T18:40:15;9.20;74.60
3268;DHT22;1646;52.450;13.326;2024-03-17T18:45:14;9.10;74.70
3268;DHT22;1646;52.450;13.326;2024-03-17T18:50:11;9.10;74.90
3268;DHT22;1646;52.450;13.326;2024-03-17T18:55:13;9.10;74.30
3268;DHT22;1646;52.450;13.326;2024-03-17T19:00:11;9.00;75.40
3268;DHT22;1646;52.450;13.326;2024-03-17T19:05:13;9.00;76.90
3268;DHT22;1646;52.450;13.326;2024-03-17T19:10:11;8.90;76.50
3268;DHT22;1646;52.450;13.326;2024-03-17T19:15:09;8.90;77.30
3268;DHT22;1646;52.450;13.326;2024-03-17T19:20:08;8.70;78.50
3268;DHT22;1646;52.450;13.326;2024-03-17T19:25:11;8.40;78.80
3268;DHT22;1646;52.450;13.326;2024-03-17T19:30:09;8.30;79.20
3268;DHT22;1646;52.450;13.326;2024-03-17T19:35:07;8.30;80.20
3268;DHT22;1646;52.450;13.326;2024-03-17T19:40:06;8.20;81.00
3268;DHT22;1646;52.450;13.326;2024-03-17T19:45:06;8.00;84.30
3268;DHT22;1646;52.450;13.326;2024-03-17T19:50:04;7.80;86.00
3268;DHT22;1646;52.450;13.326;2024-03-17T19:55:02;7.60;88.20
3268;DHT22;1646;52.450;13.326;2024-03-17T19:59:59;7.40;89.80
3268;DHT22;1646;52.450;13.326;2024-03-17T20:05:09;7.30;90.20
3268;DHT22;1646;52.450;13.326;2024-03-17T20:10:07;7.20;91.10
3268;DHT22;1646;52.450;13.326;2024-03-17T20:15:10;7.30;90.40
3268;DHT22;1646;52.450;13.326;2024-03-17T20:20:09;7.30;91.00
3268;DHT22;1646;52.450;13.326;2024-03-17T20:25:09;7.30;91.30
3268;DHT22;1646;52.450;13.326;2024-03-17T20:30:09;7.20;91.10
3268;DHT22;1646;52.450;13.326;2024-03-17T20:35:08;7.20;90.70
3268;DHT22;1646;52.450;13.326;2024-03-17T20:40:07;7.10;91.70
3268;DHT22;1646;52.450;13.326;2024-03-17T20:45:06;6.90;92.10
3268;DHT22;1646;52.450;13.326;2024-03-17T20:50:05;6.90;92.30
3268;DHT22;1646;52.450;13.326;2024-03-17T20:55:07;6.80;93.00
3268;DHT22;1646;52.450;13.326;2024-03-17T21:00:06;6.70;93.70
3268;DHT22;1646;52.450;13.326;2024-03-17T21:05:16;6.60;93.60
3268;DHT22;1646;52.450;13.326;2024-03-17T21:10:17;6.50;94.20
3268;DHT22;1646;52.450;13.326;2024-03-17T21:15:15;6.40;95.90
3268;DHT22;1646;52.450;13.326;2024-03-17T21:20:13;6.30;96.30
3268;DHT22;1646;52.450;13.326;2024-03-17T21:25:11;6.20;97.30
3268;DHT22;1646;52.450;13.326;2024-03-17T21:30:12;6.10;98.10
3268;DHT22;1646;52.450;13.326;2024-03-17T21:35:10;6.00;98.70
3268;DHT22;1646;52.450;13.326;2024-03-17T21:40:09;6.00;99.50
3268;DHT22;1646;52.450;13.326;2024-03-17T21:45:11;5.90;99.90
3268;DHT22;1646;52.450;13.326;2024-03-17T21:50:10;5.80;99.90
3268;DHT22;1646;52.450;13.326;2024-03-17T21:55:08;5.70;99.90
3268;DHT22;1646;52.450;13.326;2024-03-17T22:00:07;5.70;99.90
3268;DHT22;1646;52.450;13.326;2024-03-17T22:05:10;5.50;99.90
3268;DHT22;1646;52.450;13.326;2024-03-17T22:10:08;5.40;99.90
3268;DHT22;1646;52.450;13.326;2024-03-17T22:15:06;5.30;99.90
3268;DHT22;1646;52.450;13.326;2024-03-17T22:20:07;5.30;99.90
3268;DHT22;1646;52.450;13.326;2024-03-17T22:25:08;5.20;99.90
3268;DHT22;1646;52.450;13.326;2024-03-17T22:30:07;5.20;99.90
3268;DHT22;1646;52.450;13.326;2024-03-17T22:35:05;5.20;99.90
3268;DHT22;1646;52.450;13.326;2024-03-17T22:40:03;5.20;99.90
3268;DHT22;1646;52.450;13.326;2024-03-17T22:45:05;5.10;99.90
3268;DHT22;1646;52.450;13.326;2024-03-17T22:50:03;5.20;99.90
3268;DHT22;1646;52.450;13.326;2024-03-17T22:55:00;5.20;99.90
3268;DHT22;1646;52.450;13.326;2024-03-17T22:59:58;5.20;99.90
3268;DHT22;1646;52.450;13.326;2024-03-17T23:04:56;5.10;99.90
3268;DHT22;1646;52.450;13.326;2024-03-17T23:09:54;5.10;99.90
3268;DHT22;1646;52.450;13.326;2024-03-17T23:14:52;5.10;99.90
3268;DHT22;1646;52.450;13.326;2024-03-17T23:19:49;5.00;99.90
3268;DHT22;1646;52.450;13.326;2024-03-17T23:24:48;5.00;99.90
3268;DHT22;1646;52.450;13.326;2024-03-17T23:29:45;4.90;99.90
3268;DHT22;1646;52.450;13.326;2024-03-17T23:34:45;4.80;99.90
3268;DHT22;1646;52.450;13.326;2024-03-17T23:39:42;4.80;99.90
3268;DHT22;1646;52.450;13.326;2024-03-17T23:44:41;4.70;99.90
3268;DHT22;1646;52.450;13.326;2024-03-17T23:49:38;4.60;99.90
3268;DHT22;1646;52.450;13.326;2024-03-17T23:54:35;4.50;99.90
3268;DHT22;1646;52.450;13.326;2024-03-17T23:59:33;4.40;99.90
